createdAt,value
2023-05-17T00:00:21.566Z,24.08
2023-05-17T00:03:23.382Z,23.27
2023-05-17T00:06:25.564Z,25.15
2023-05-17T00:09:28.828Z,19.17
2023-05-17T00:12:30.709Z,22.02
2023-05-17T00:15:33.720Z,24.42
2023-05-17T00:18:35.670Z,25.65
2023-05-17T00:21:38.554Z,28.55
2023-05-17T00:24:41.786Z,21.23
2023-05-17T00:27:43.667Z,22.75
2023-05-17T00:30:46.465Z,22.40
2023-05-17T00:33:48.371Z,25.38
2023-05-17T00:36:50.172Z,24.42
2023-05-17T00:39:54.229Z,26.88
2023-05-17T00:42:56.385Z,23.67
2023-05-17T00:45:58.428Z,29.02
2023-05-17T00:49:00.436Z,25.33
2023-05-17T00:52:02.375Z,24.45
2023-05-17T00:55:06.457Z,25.17
2023-05-17T00:58:08.342Z,28.02
2023-05-17T01:01:10.220Z,27.38
2023-05-17T01:04:12.601Z,27.40
2023-05-17T01:07:14.688Z,25.23
2023-05-17T01:10:18.957Z,22.05
2023-05-17T01:13:27.885Z,23.13
2023-05-17T01:16:33.593Z,30.85
2023-05-17T01:19:53.621Z,23.35
2023-05-17T01:23:11.466Z,24.95
2023-05-17T01:26:19.153Z,23.88
2023-05-17T01:29:26.050Z,24.30
2023-05-17T01:32:28.569Z,20.67
2023-05-17T01:35:31.501Z,24.77
2023-05-17T01:38:33.374Z,31.77
2023-05-17T01:41:40.413Z,29.67
2023-05-17T01:44:50.724Z,25.02
2023-05-17T01:48:00.745Z,28.42
2023-05-17T01:51:05.076Z,26.77
2023-05-17T01:54:12.272Z,25.83
2023-05-17T01:57:16.738Z,24.55
2023-05-17T02:00:22.792Z,30.27
2023-05-17T02:03:25.182Z,21.85
2023-05-17T02:06:27.218Z,27.10
2023-05-17T02:09:29.117Z,27.88
2023-05-17T02:12:30.983Z,26.40
2023-05-17T02:15:34.599Z,23.17
2023-05-17T02:18:38.010Z,24.40
2023-05-17T02:21:40.242Z,25.08
2023-05-17T02:24:42.099Z,32.25
2023-05-17T02:27:43.942Z,24.60
2023-05-17T02:30:47.581Z,24.25
2023-05-17T02:33:49.515Z,29.40
2023-05-17T02:36:52.702Z,29.02
2023-05-17T02:39:54.556Z,26.58
2023-05-17T02:42:56.411Z,30.35
2023-05-17T02:46:00.572Z,26.13
2023-05-17T02:49:02.429Z,27.73
2023-05-17T02:52:05.687Z,23.08
2023-05-17T02:55:08.081Z,27.65
2023-05-17T02:58:09.947Z,33.90
2023-05-17T03:01:13.513Z,32.58
2023-05-17T03:04:15.856Z,26.90
2023-05-17T03:07:18.210Z,32.78
2023-05-17T03:10:20.307Z,28.60
2023-05-17T03:13:23.149Z,27.00
2023-05-17T03:16:26.621Z,31.42
2023-05-17T03:19:29.141Z,27.83
2023-05-17T03:22:31.017Z,26.70
2023-05-17T03:25:32.889Z,24.05
2023-05-17T03:28:35.045Z,25.70
2023-05-17T03:31:38.339Z,24.48
2023-05-17T03:34:41.381Z,21.25
2023-05-17T03:37:43.225Z,24.90
2023-05-17T03:40:45.152Z,25.70
2023-05-17T03:43:47.970Z,30.73
2023-05-17T03:46:51.324Z,26.63
2023-05-17T03:49:54.049Z,33.05
2023-05-17T03:52:55.878Z,25.27
2023-05-17T03:55:57.762Z,25.63
2023-05-17T03:59:00.016Z,28.17
2023-05-17T04:02:03.387Z,26.48
2023-05-17T04:05:05.920Z,30.27
2023-05-17T04:08:07.836Z,32.00
2023-05-17T04:11:16.072Z,29.33
2023-05-17T04:14:18.651Z,26.15
2023-05-17T04:17:21.970Z,27.02
2023-05-17T04:20:23.938Z,21.95
2023-05-17T04:23:26.720Z,22.98
2023-05-17T04:26:29.144Z,28.50
2023-05-17T04:29:31.119Z,26.25
2023-05-17T04:32:36.048Z,27.23
2023-05-17T04:35:39.260Z,24.67
2023-05-17T04:38:43.928Z,26.15
2023-05-17T04:41:45.854Z,27.02
2023-05-17T04:44:47.779Z,32.35
2023-05-17T04:47:54.526Z,25.63
2023-05-17T04:50:56.480Z,27.88
2023-05-17T04:54:01.125Z,29.80
2023-05-17T04:57:04.007Z,35.80
2023-05-17T05:00:07.500Z,26.70
2023-05-17T05:03:11.321Z,27.85
2023-05-17T05:06:16.258Z,31.20
2023-05-17T05:09:18.261Z,33.97
2023-05-17T05:12:20.780Z,29.33
2023-05-17T05:15:22.670Z,28.45
2023-05-17T05:18:26.697Z,29.73
2023-05-17T05:21:28.602Z,30.23
2023-05-17T05:24:30.793Z,29.98
2023-05-17T05:27:32.654Z,36.25
2023-05-17T05:30:34.766Z,28.02
2023-05-17T05:33:38.185Z,32.92
2023-05-17T05:36:40.817Z,30.67
2023-05-17T05:39:42.711Z,27.55
2023-05-17T05:42:44.752Z,26.85
2023-05-17T05:45:47.422Z,32.67
2023-05-17T05:48:50.653Z,27.92
2023-05-17T05:51:52.697Z,33.17
2023-05-17T05:54:54.654Z,27.58
2023-05-17T05:57:56.797Z,28.92
2023-05-17T06:01:00.042Z,30.55
2023-05-17T06:04:04.380Z,41.88
2023-05-17T06:07:06.490Z,52.10
2023-05-17T06:10:09.365Z,51.20
2023-05-17T06:13:11.247Z,48.33
2023-05-17T06:16:13.671Z,49.28
2023-05-17T06:19:17.176Z,55.40
2023-05-17T06:22:19.796Z,48.63
2023-05-17T06:25:21.806Z,47.95
2023-05-17T06:28:24.747Z,49.30
2023-05-17T06:31:26.626Z,39.67
2023-05-17T06:34:30.052Z,34.15
2023-05-17T06:37:32.276Z,33.38
2023-05-17T06:40:34.412Z,40.13
2023-05-17T06:43:37.719Z,33.65
2023-05-17T06:46:39.893Z,28.00
2023-05-17T06:49:43.039Z,32.05
2023-05-17T06:52:44.928Z,29.80
2023-05-17T06:55:47.643Z,30.38
2023-05-17T06:58:49.654Z,28.98
2023-05-17T07:01:52.554Z,31.70
2023-05-17T07:04:56.802Z,41.95
2023-05-17T07:07:59.571Z,38.20
2023-05-17T07:11:01.481Z,40.58
2023-05-17T07:14:03.434Z,47.63
2023-05-17T07:17:05.408Z,43.50
2023-05-17T07:20:10.088Z,45.67
2023-05-17T07:23:12.265Z,37.97
2023-05-17T07:26:14.416Z,41.40
2023-05-17T07:29:16.279Z,51.47
2023-05-17T07:32:18.464Z,49.90
2023-05-17T07:35:22.124Z,49.20
2023-05-17T07:38:24.149Z,44.47
2023-05-17T07:41:27.335Z,52.33
2023-05-17T07:44:29.171Z,41.92
2023-05-17T07:47:31.473Z,43.33
2023-05-17T07:50:34.717Z,48.17
2023-05-17T07:53:36.566Z,50.25
2023-05-17T07:56:39.372Z,43.88
2023-05-17T07:59:41.455Z,39.30
2023-05-17T08:02:43.459Z,40.58
2023-05-17T08:05:47.203Z,43.75
2023-05-17T08:08:49.118Z,51.58
2023-05-17T08:11:51.536Z,42.67
2023-05-17T08:14:53.552Z,37.30
2023-05-17T08:17:55.598Z,39.83
2023-05-17T08:20:59.686Z,41.17
2023-05-17T08:24:03.407Z,46.10
2023-05-17T08:27:06.389Z,42.65
2023-05-17T08:30:11.811Z,45.47
2023-05-17T08:33:16.998Z,42.88
2023-05-17T08:36:20.916Z,50.85
2023-05-17T08:39:22.760Z,49.90
2023-05-17T08:42:28.007Z,37.33
2023-05-17T08:45:31.948Z,37.13
2023-05-17T08:48:36.864Z,42.72
2023-05-17T08:51:42.273Z,46.05
2023-05-17T08:54:44.249Z,49.63
2023-05-17T08:57:47.163Z,46.35
2023-05-17T09:00:50.877Z,47.10
2023-05-17T09:03:52.903Z,47.53
2023-05-17T09:06:56.616Z,56.20
2023-05-17T09:09:58.586Z,48.30
2023-05-17T09:13:00.468Z,47.15
2023-05-17T09:16:03.254Z,44.67
2023-05-17T09:19:07.278Z,38.30
2023-05-17T09:22:13.146Z,42.88
2023-05-17T09:25:19.592Z,42.45
2023-05-17T09:28:23.814Z,42.78
2023-05-17T09:31:25.712Z,41.58
2023-05-17T09:34:27.574Z,33.00
2023-05-17T09:37:31.010Z,35.85
2023-05-17T09:40:33.072Z,38.70
2023-05-17T09:43:34.966Z,27.98
2023-05-17T09:46:38.959Z,26.33
2023-05-17T09:49:40.933Z,27.38
2023-05-17T09:52:44.159Z,31.90
2023-05-17T09:55:48.539Z,29.63
2023-05-17T09:58:50.627Z,24.67
2023-05-17T10:01:54.522Z,21.42
2023-05-17T10:04:58.518Z,29.42
2023-05-17T10:08:04.809Z,25.00
2023-05-17T10:11:09.013Z,28.35
2023-05-17T10:14:14.735Z,22.38
2023-05-17T10:17:18.198Z,21.95
2023-05-17T10:20:21.541Z,22.42
2023-05-17T10:23:27.634Z,20.05
2023-05-17T10:26:30.478Z,24.10
2023-05-17T10:29:36.898Z,24.35
2023-05-17T10:32:39.393Z,21.77
2023-05-17T10:35:43.969Z,15.02
2023-05-17T10:38:47.836Z,21.23
2023-05-17T10:41:53.074Z,22.80
2023-05-17T10:44:55.037Z,29.98
2023-05-17T10:47:58.935Z,22.38
2023-05-17T10:51:06.842Z,24.38
2023-05-17T10:54:12.074Z,18.70
2023-05-17T10:57:21.625Z,17.05
2023-05-17T11:00:27.964Z,20.10
2023-05-17T11:03:31.826Z,15.50
2023-05-17T11:06:36.722Z,22.45
2023-05-17T11:09:41.070Z,20.30
2023-05-17T11:12:44.893Z,13.35
2023-05-17T11:16:03.585Z,14.70
2023-05-17T11:19:10.468Z,15.40
2023-05-17T11:22:16.200Z,16.23
2023-05-17T11:25:19.720Z,16.58
2023-05-17T11:28:22.612Z,15.25
2023-05-17T11:31:31.104Z,14.05
2023-05-17T11:34:36.214Z,15.32
2023-05-17T11:37:38.981Z,13.23
2023-05-17T11:40:42.866Z,10.85
2023-05-17T11:43:47.362Z,9.88
2023-05-17T11:46:50.529Z,10.30
2023-05-17T11:49:56.283Z,16.95
2023-05-17T11:53:00.310Z,13.23
2023-05-17T11:56:04.813Z,13.20
2023-05-17T11:59:06.678Z,20.48
2023-05-17T12:02:09.242Z,14.07
2023-05-17T12:05:12.123Z,11.48
2023-05-17T12:08:16.208Z,11.98
2023-05-17T12:11:21.847Z,13.45
2023-05-17T12:14:24.353Z,16.92
2023-05-17T12:17:33.392Z,14.65
2023-05-17T12:20:35.895Z,9.57
2023-05-17T12:23:43.539Z,20.02
2023-05-17T12:26:48.032Z,10.35
2023-05-17T12:29:49.945Z,7.97
2023-05-17T12:32:53.074Z,14.55
2023-05-17T12:35:55.214Z,11.30
2023-05-17T12:38:58.102Z,16.75
2023-05-17T12:42:01.434Z,10.13
2023-05-17T12:45:03.749Z,7.28
2023-05-17T12:48:06.345Z,10.57
2023-05-17T12:51:11.845Z,8.65
2023-05-17T12:54:18.357Z,19.38
2023-05-17T12:57:22.026Z,8.40
2023-05-17T13:00:24.228Z,8.45
2023-05-17T13:03:27.606Z,10.02
2023-05-17T13:06:29.811Z,7.78
2023-05-17T13:09:34.271Z,6.82
2023-05-17T13:12:39.310Z,7.18
2023-05-17T13:15:41.633Z,7.43
2023-05-17T13:18:51.141Z,9.43
2023-05-17T13:21:53.062Z,8.40
2023-05-17T13:24:55.889Z,8.45
2023-05-17T13:27:59.122Z,6.60
2023-05-17T13:31:01.584Z,9.85
2023-05-17T13:34:03.524Z,8.38
2023-05-17T13:37:08.622Z,9.25
2023-05-17T13:40:13.661Z,12.15
2023-05-17T13:43:17.184Z,9.57
2023-05-17T13:46:19.610Z,9.35
2023-05-17T13:49:21.579Z,7.13
2023-05-17T13:52:23.566Z,9.38
2023-05-17T13:55:27.663Z,9.77
2023-05-17T13:58:30.930Z,7.45
2023-05-17T14:01:33.766Z,7.63
2023-05-17T14:04:35.744Z,9.52
2023-05-17T14:07:41.635Z,10.00
2023-05-17T14:10:43.660Z,7.30
2023-05-17T14:13:46.901Z,10.65
2023-05-17T14:16:48.728Z,9.48
2023-05-17T14:19:51.117Z,7.68
2023-05-17T14:22:53.465Z,9.75
2023-05-17T14:25:56.133Z,6.35
2023-05-17T14:28:59.959Z,6.78
2023-05-17T14:32:01.786Z,8.98
2023-05-17T14:35:05.882Z,7.57
2023-05-17T14:38:07.731Z,6.18
2023-05-17T14:41:09.608Z,4.78
2023-05-17T14:44:14.050Z,5.80
2023-05-17T14:47:16.645Z,4.88
2023-05-17T14:50:19.866Z,6.35
2023-05-17T14:53:29.102Z,4.80
2023-05-17T14:56:31.027Z,5.15
2023-05-17T14:59:34.231Z,5.88
2023-05-17T15:02:36.956Z,7.30
2023-05-17T15:05:39.042Z,13.20
2023-05-17T15:08:40.982Z,3.50
2023-05-17T15:11:42.803Z,4.18
2023-05-17T15:14:47.717Z,7.90
2023-05-17T15:17:49.667Z,3.33
2023-05-17T15:20:52.309Z,3.35
2023-05-17T15:23:54.243Z,4.45
2023-05-17T15:26:56.156Z,3.63
2023-05-17T15:29:59.778Z,5.82
2023-05-17T15:33:02.665Z,3.03
2023-05-17T15:36:06.869Z,6.97
2023-05-17T15:39:08.810Z,4.97
2023-05-17T15:42:11.353Z,3.72
2023-05-17T15:45:14.564Z,3.28
2023-05-17T15:48:18.164Z,3.85
2023-05-17T15:51:20.037Z,5.40
2023-05-17T15:54:21.893Z,4.25
2023-05-17T15:57:24.351Z,3.75
2023-05-17T16:00:27.854Z,4.28
2023-05-17T16:03:30.325Z,3.65
2023-05-17T16:06:36.028Z,3.72
2023-05-17T16:09:38.253Z,4.88
2023-05-17T16:12:40.311Z,6.93
2023-05-17T16:15:43.613Z,3.17
2023-05-17T16:18:46.680Z,4.25
2023-05-17T16:21:50.785Z,5.65
2023-05-17T16:24:57.060Z,4.95
2023-05-17T16:27:58.991Z,2.90
2023-05-17T16:31:04.122Z,3.20
2023-05-17T16:34:06.166Z,4.25
2023-05-17T16:37:08.221Z,5.50
2023-05-17T16:40:10.913Z,3.28
2023-05-17T16:43:16.101Z,5.90
2023-05-17T16:46:22.090Z,3.65
2023-05-17T16:49:24.381Z,2.88
2023-05-17T16:52:27.410Z,3.55
2023-05-17T16:55:29.337Z,4.75
2023-05-17T16:58:32.504Z,3.00
2023-05-17T17:01:35.889Z,5.30
2023-05-17T17:04:38.089Z,4.10
2023-05-17T17:07:39.951Z,4.93
2023-05-17T17:10:42.116Z,3.42
2023-05-17T17:13:43.974Z,4.97
2023-05-17T17:16:47.435Z,4.93
2023-05-17T17:19:49.304Z,5.28
2023-05-17T17:22:51.399Z,5.80
2023-05-17T17:25:53.354Z,4.55
2023-05-17T17:28:55.172Z,7.88
2023-05-17T17:31:59.504Z,7.68
2023-05-17T17:35:01.598Z,5.85
2023-05-17T17:38:03.471Z,6.63
2023-05-17T17:41:06.355Z,6.35
2023-05-17T17:44:08.377Z,6.32
2023-05-17T17:47:12.513Z,6.22
2023-05-17T17:50:14.485Z,6.03
2023-05-17T17:53:17.051Z,7.15
2023-05-17T17:56:18.917Z,8.68
2023-05-17T17:59:20.945Z,6.25
2023-05-17T18:02:24.252Z,7.47
2023-05-17T18:05:26.399Z,5.28
2023-05-17T18:08:28.276Z,13.07
2023-05-17T18:11:30.104Z,5.65
2023-05-17T18:14:32.036Z,9.30
2023-05-17T18:17:36.443Z,9.10
2023-05-17T18:20:38.416Z,6.82
2023-05-17T18:23:40.506Z,8.85
2023-05-17T18:26:44.571Z,6.75
2023-05-17T18:29:46.483Z,6.97
2023-05-17T18:32:50.665Z,5.95
2023-05-17T18:35:52.739Z,8.13
2023-05-17T18:38:58.719Z,8.07
2023-05-17T18:42:00.928Z,8.13
2023-05-17T18:45:05.720Z,6.47
2023-05-17T18:48:09.573Z,7.45
2023-05-17T18:51:12.394Z,6.68
2023-05-17T18:54:14.864Z,10.25
2023-05-17T18:57:16.906Z,11.30
2023-05-17T19:00:21.493Z,7.63
2023-05-17T19:03:25.572Z,8.85
2023-05-17T19:06:31.813Z,8.60
2023-05-17T19:09:34.601Z,8.82
2023-05-17T19:12:37.058Z,8.05
2023-05-17T19:15:39.522Z,8.80
2023-05-17T19:18:43.704Z,7.68
2023-05-17T19:21:46.155Z,7.63
2023-05-17T19:24:50.402Z,8.35
2023-05-17T19:27:53.691Z,8.65
2023-05-17T19:30:56.851Z,14.38
2023-05-17T19:34:02.023Z,7.90
2023-05-17T19:37:05.010Z,9.07
2023-05-17T19:40:08.488Z,7.57
2023-05-17T19:43:12.796Z,8.73
2023-05-17T19:46:15.076Z,8.60
2023-05-17T19:49:20.093Z,7.88
2023-05-17T19:52:23.099Z,9.40
2023-05-17T19:55:29.934Z,10.38
2023-05-17T19:58:32.118Z,12.70
2023-05-17T20:01:34.475Z,8.50
2023-05-17T20:04:38.448Z,8.32
2023-05-17T20:07:41.089Z,8.23
2023-05-17T20:10:43.988Z,9.18
2023-05-17T20:13:46.263Z,7.07
2023-05-17T20:16:48.736Z,10.52
2023-05-17T20:19:53.240Z,7.88
2023-05-17T20:22:56.381Z,7.32
2023-05-17T20:25:58.883Z,6.32
2023-05-17T20:29:00.994Z,6.90
2023-05-17T20:32:03.735Z,7.40
2023-05-17T20:35:08.501Z,7.68
2023-05-17T20:38:10.699Z,7.10
2023-05-17T20:41:14.972Z,5.90
2023-05-17T20:44:18.875Z,6.28
2023-05-17T20:47:22.630Z,5.53
2023-05-17T20:50:26.307Z,6.32
2023-05-17T20:53:29.259Z,7.63
2023-05-17T20:56:31.571Z,7.38
2023-05-17T20:59:33.459Z,6.35
2023-05-17T21:02:35.590Z,9.40
2023-05-17T21:05:39.950Z,7.07
2023-05-17T21:08:42.946Z,8.10
2023-05-17T21:11:45.450Z,6.05
2023-05-17T21:14:54.199Z,7.75
2023-05-17T21:18:03.609Z,10.45
2023-05-17T21:21:08.088Z,8.75
2023-05-17T21:24:10.476Z,7.28
2023-05-17T21:27:12.297Z,8.25
2023-05-17T21:30:14.206Z,7.93
2023-05-17T21:33:16.423Z,6.22
2023-05-17T21:36:19.697Z,7.45
2023-05-17T21:39:23.642Z,5.75
2023-05-17T21:42:26.413Z,6.40
2023-05-17T21:45:28.457Z,7.18
2023-05-17T21:48:30.448Z,8.25
2023-05-17T21:51:33.666Z,4.95
2023-05-17T21:54:36.356Z,8.40
2023-05-17T21:57:38.274Z,8.50
2023-05-17T22:00:40.645Z,8.98
2023-05-17T22:03:42.684Z,7.82
2023-05-17T22:06:46.774Z,6.75
2023-05-17T22:09:48.759Z,8.70
2023-05-17T22:12:54.375Z,7.22
2023-05-17T22:19:01.445Z,6.65
2023-05-17T22:22:05.098Z,6.32
2023-05-17T22:25:08.232Z,8.32
2023-05-17T22:28:10.288Z,8.50
2023-05-17T22:31:14.742Z,8.00
2023-05-17T22:34:17.416Z,6.57
2023-05-17T22:37:22.835Z,8.07
2023-05-17T22:40:24.761Z,9.25
2023-05-17T22:43:28.163Z,6.63
2023-05-17T22:46:32.362Z,8.23
2023-05-17T22:49:35.835Z,5.78
2023-05-17T22:52:42.751Z,5.45
2023-05-17T22:55:48.829Z,7.38
2023-05-17T22:58:50.906Z,6.53
2023-05-17T23:01:53.403Z,6.28
2023-05-17T23:04:55.793Z,6.57
2023-05-17T23:08:01.150Z,7.25
2023-05-17T23:11:05.566Z,7.35
2023-05-17T23:14:07.664Z,8.15
2023-05-17T23:17:09.956Z,6.20
2023-05-17T23:20:13.143Z,6.47
2023-05-17T23:23:16.523Z,8.90
2023-05-17T23:26:19.330Z,6.97
2023-05-17T23:29:21.181Z,8.20
2023-05-17T23:32:24.440Z,7.75
2023-05-17T23:35:26.514Z,8.00
2023-05-17T23:38:30.506Z,6.13
2023-05-17T23:41:32.371Z,8.73
2023-05-17T23:44:35.097Z,7.50
2023-05-17T23:47:40.930Z,7.63
2023-05-17T23:50:43.118Z,7.10
2023-05-17T23:53:49.081Z,9.32
2023-05-17T23:56:52.061Z,8.05
2023-05-17T23:59:53.900Z,9.48
